sensor_id;sensor_type;location;lat;lon;timestamp;P1;durP1;ratioP1;P2;durP2;ratioP2
69260;SDS011;56378;52.404;20.816;2023-04-01T00:00:51;42.33;;;23.98;;
69260;SDS011;56378;52.404;20.816;2023-04-01T00:03:18;39.40;;;22.30;;
69260;SDS011;56378;52.404;20.816;2023-04-01T00:05:44;40.83;;;22.33;;
69260;SDS011;56378;52.404;20.816;2023-04-01T00:08:11;45.87;;;23.00;;
69260;SDS011;56378;52.404;20.816;2023-04-01T00:10:37;42.60;;;22.38;;
69260;SDS011;56378;52.404;20.816;2023-04-01T00:13:03;43.38;;;23.30;;
69260;SDS011;56378;52.404;20.816;2023-04-01T00:15:29;49.58;;;23.10;;
69260;SDS011;56378;52.404;20.816;2023-04-01T00:17:55;46.40;;;22.53;;
69260;SDS011;56378;52.404;20.816;2023-04-01T00:20:21;44.33;;;22.60;;
69260;SDS011;56378;52.404;20.816;2023-04-01T00:22:47;48.90;;;22.75;;
69260;SDS011;56378;52.404;20.816;2023-04-01T00:25:13;42.80;;;20.90;;
69260;SDS011;56378;52.404;20.816;2023-04-01T00:27:39;44.67;;;23.23;;
69260;SDS011;56378;52.404;20.816;2023-04-01T00:30:06;41.72;;;22.38;;
69260;SDS011;56378;52.404;20.816;2023-04-01T00:32:32;44.67;;;23.30;;
69260;SDS011;56378;52.404;20.816;2023-04-01T00:34:59;45.92;;;22.73;;
69260;SDS011;56378;52.404;20.816;2023-04-01T00:37:25;42.53;;;21.30;;
69260;SDS011;56378;52.404;20.816;2023-04-01T00:39:51;39.47;;;21.37;;
69260;SDS011;56378;52.404;20.816;2023-04-01T00:42:17;39.08;;;20.60;;
69260;SDS011;56378;52.404;20.816;2023-04-01T00:44:45;38.88;;;20.45;;
69260;SDS011;56378;52.404;20.816;2023-04-01T00:47:15;38.50;;;19.00;;
69260;SDS011;56378;52.404;20.816;2023-04-01T00:49:42;40.03;;;19.47;;
69260;SDS011;56378;52.404;20.816;2023-04-01T00:52:11;34.78;;;18.30;;
69260;SDS011;56378;52.404;20.816;2023-04-01T00:54:41;39.78;;;19.48;;
69260;SDS011;56378;52.404;20.816;2023-04-01T00:57:15;38.30;;;18.58;;
69260;SDS011;56378;52.404;20.816;2023-04-01T00:59:55;39.85;;;18.98;;
69260;SDS011;56378;52.404;20.816;2023-04-01T01:02:21;38.53;;;19.07;;
69260;SDS011;56378;52.404;20.816;2023-04-01T01:04:47;36.10;;;18.17;;
69260;SDS011;56378;52.404;20.816;2023-04-01T01:10:06;36.53;;;17.03;;
69260;SDS011;56378;52.404;20.816;2023-04-01T01:12:37;35.55;;;17.15;;
69260;SDS011;56378;52.404;20.816;2023-04-01T01:15:32;37.15;;;17.25;;
69260;SDS011;56378;52.404;20.816;2023-04-01T01:18:13;35.47;;;17.90;;
69260;SDS011;56378;52.404;20.816;2023-04-01T01:31:13;36.33;;;17.27;;
69260;SDS011;56378;52.404;20.816;2023-04-01T01:36:58;36.43;;;16.60;;
69260;SDS011;56378;52.404;20.816;2023-04-01T01:39:28;34.97;;;17.27;;
69260;SDS011;56378;52.404;20.816;2023-04-01T01:41:57;36.03;;;16.58;;
69260;SDS011;56378;52.404;20.816;2023-04-01T01:44:25;37.25;;;18.38;;
69260;SDS011;56378;52.404;20.816;2023-04-01T01:46:53;41.90;;;18.13;;
69260;SDS011;56378;52.404;20.816;2023-04-01T01:49:20;35.07;;;16.90;;
69260;SDS011;56378;52.404;20.816;2023-04-01T01:51:47;37.75;;;18.30;;
69260;SDS011;56378;52.404;20.816;2023-04-01T01:54:14;35.80;;;17.63;;
69260;SDS011;56378;52.404;20.816;2023-04-01T01:56:41;33.40;;;15.67;;
69260;SDS011;56378;52.404;20.816;2023-04-01T01:59:11;36.30;;;16.45;;
69260;SDS011;56378;52.404;20.816;2023-04-01T02:01:40;36.53;;;18.42;;
69260;SDS011;56378;52.404;20.816;2023-04-01T02:04:09;39.65;;;17.83;;
69260;SDS011;56378;52.404;20.816;2023-04-01T02:06:38;40.33;;;17.35;;
69260;SDS011;56378;52.404;20.816;2023-04-01T02:09:07;35.30;;;16.77;;
69260;SDS011;56378;52.404;20.816;2023-04-01T02:11:40;36.33;;;16.80;;
69260;SDS011;56378;52.404;20.816;2023-04-01T02:14:17;40.13;;;17.55;;
69260;SDS011;56378;52.404;20.816;2023-04-01T02:19:16;38.63;;;16.85;;
69260;SDS011;56378;52.404;20.816;2023-04-01T02:21:48;32.37;;;15.67;;
69260;SDS011;56378;52.404;20.816;2023-04-01T02:24:26;33.22;;;15.43;;
69260;SDS011;56378;52.404;20.816;2023-04-01T02:26:54;37.72;;;16.88;;
69260;SDS011;56378;52.404;20.816;2023-04-01T02:29:20;37.03;;;15.33;;
69260;SDS011;56378;52.404;20.816;2023-04-01T02:31:48;33.40;;;15.67;;
69260;SDS011;56378;52.404;20.816;2023-04-01T02:34:16;34.50;;;15.13;;
69260;SDS011;56378;52.404;20.816;2023-04-01T02:36:42;35.10;;;15.43;;
69260;SDS011;56378;52.404;20.816;2023-04-01T02:39:08;32.75;;;15.60;;
69260;SDS011;56378;52.404;20.816;2023-04-01T02:41:40;40.00;;;16.37;;
69260;SDS011;56378;52.404;20.816;2023-04-01T02:44:07;34.28;;;15.85;;
69260;SDS011;56378;52.404;20.816;2023-04-01T02:46:34;31.10;;;14.45;;
69260;SDS011;56378;52.404;20.816;2023-04-01T02:48:59;34.60;;;16.08;;
69260;SDS011;56378;52.404;20.816;2023-04-01T02:51:25;35.47;;;15.20;;
69260;SDS011;56378;52.404;20.816;2023-04-01T02:53:51;35.38;;;15.93;;
69260;SDS011;56378;52.404;20.816;2023-04-01T02:56:17;34.70;;;15.30;;
69260;SDS011;56378;52.404;20.816;2023-04-01T02:58:44;31.23;;;14.93;;
69260;SDS011;56378;52.404;20.816;2023-04-01T03:01:10;30.38;;;14.27;;
69260;SDS011;56378;52.404;20.816;2023-04-01T03:03:36;29.95;;;14.55;;
69260;SDS011;56378;52.404;20.816;2023-04-01T03:06:09;29.10;;;13.60;;
69260;SDS011;56378;52.404;20.816;2023-04-01T03:08:36;31.47;;;14.73;;
69260;SDS011;56378;52.404;20.816;2023-04-01T03:11:02;31.65;;;14.48;;
69260;SDS011;56378;52.404;20.816;2023-04-01T03:13:28;28.70;;;14.13;;
69260;SDS011;56378;52.404;20.816;2023-04-01T03:15:54;29.53;;;13.70;;
69260;SDS011;56378;52.404;20.816;2023-04-01T03:18:20;28.77;;;13.57;;
69260;SDS011;56378;52.404;20.816;2023-04-01T03:20:46;30.08;;;14.18;;
69260;SDS011;56378;52.404;20.816;2023-04-01T03:23:12;28.50;;;14.07;;
69260;SDS011;56378;52.404;20.816;2023-04-01T03:25:38;27.85;;;13.68;;
69260;SDS011;56378;52.404;20.816;2023-04-01T03:28:04;27.53;;;13.40;;
69260;SDS011;56378;52.404;20.816;2023-04-01T03:30:30;27.63;;;13.02;;
69260;SDS011;56378;52.404;20.816;2023-04-01T03:32:56;32.87;;;15.97;;
69260;SDS011;56378;52.404;20.816;2023-04-01T03:35:24;28.20;;;15.15;;
69260;SDS011;56378;52.404;20.816;2023-04-01T03:37:50;27.67;;;13.93;;
69260;SDS011;56378;52.404;20.816;2023-04-01T03:40:17;28.45;;;13.80;;
69260;SDS011;56378;52.404;20.816;2023-04-01T03:42:43;29.97;;;14.13;;
69260;SDS011;56378;52.404;20.816;2023-04-01T03:45:09;31.00;;;14.30;;
69260;SDS011;56378;52.404;20.816;2023-04-01T03:47:36;26.77;;;13.55;;
69260;SDS011;56378;52.404;20.816;2023-04-01T03:50:03;31.27;;;14.38;;
69260;SDS011;56378;52.404;20.816;2023-04-01T03:52:30;30.67;;;14.27;;
69260;SDS011;56378;52.404;20.816;2023-04-01T03:54:56;32.55;;;14.65;;
69260;SDS011;56378;52.404;20.816;2023-04-01T03:57:22;29.93;;;14.43;;
69260;SDS011;56378;52.404;20.816;2023-04-01T03:59:48;30.95;;;15.10;;
69260;SDS011;56378;52.404;20.816;2023-04-01T04:02:13;29.40;;;14.32;;
69260;SDS011;56378;52.404;20.816;2023-04-01T04:04:39;30.37;;;14.50;;
69260;SDS011;56378;52.404;20.816;2023-04-01T04:07:06;27.67;;;13.85;;
69260;SDS011;56378;52.404;20.816;2023-04-01T04:09:32;29.00;;;15.20;;
69260;SDS011;56378;52.404;20.816;2023-04-01T04:11:58;30.17;;;15.37;;
69260;SDS011;56378;52.404;20.816;2023-04-01T04:14:24;28.55;;;14.88;;
69260;SDS011;56378;52.404;20.816;2023-04-01T04:16:50;32.60;;;15.30;;
69260;SDS011;56378;52.404;20.816;2023-04-01T04:19:16;33.63;;;16.38;;
69260;SDS011;56378;52.404;20.816;2023-04-01T04:21:42;31.80;;;16.10;;
69260;SDS011;56378;52.404;20.816;2023-04-01T04:24:08;33.13;;;16.30;;
69260;SDS011;56378;52.404;20.816;2023-04-01T04:26:34;31.58;;;16.02;;
69260;SDS011;56378;52.404;20.816;2023-04-01T04:29:00;33.13;;;16.97;;
69260;SDS011;56378;52.404;20.816;2023-04-01T04:31:26;30.50;;;16.48;;
69260;SDS011;56378;52.404;20.816;2023-04-01T04:33:52;32.92;;;16.73;;
69260;SDS011;56378;52.404;20.816;2023-04-01T04:36:19;33.55;;;17.83;;
69260;SDS011;56378;52.404;20.816;2023-04-01T04:38:45;33.97;;;17.53;;
69260;SDS011;56378;52.404;20.816;2023-04-01T04:41:12;32.80;;;16.83;;
69260;SDS011;56378;52.404;20.816;2023-04-01T04:43:40;33.00;;;17.13;;
69260;SDS011;56378;52.404;20.816;2023-04-01T04:46:07;32.80;;;17.42;;
69260;SDS011;56378;52.404;20.816;2023-04-01T04:48:33;32.92;;;17.33;;
69260;SDS011;56378;52.404;20.816;2023-04-01T04:50:59;29.43;;;16.73;;
69260;SDS011;56378;52.404;20.816;2023-04-01T04:53:25;32.13;;;16.55;;
69260;SDS011;56378;52.404;20.816;2023-04-01T04:55:51;32.20;;;17.10;;
69260;SDS011;56378;52.404;20.816;2023-04-01T04:58:17;30.30;;;15.70;;
69260;SDS011;56378;52.404;20.816;2023-04-01T05:00:43;26.48;;;14.98;;
69260;SDS011;56378;52.404;20.816;2023-04-01T05:03:10;27.05;;;14.50;;
69260;SDS011;56378;52.404;20.816;2023-04-01T05:05:36;26.70;;;14.70;;
69260;SDS011;56378;52.404;20.816;2023-04-01T05:08:02;25.75;;;15.18;;
69260;SDS011;56378;52.404;20.816;2023-04-01T05:10:28;25.43;;;14.03;;
69260;SDS011;56378;52.404;20.816;2023-04-01T05:12:55;26.00;;;13.98;;
69260;SDS011;56378;52.404;20.816;2023-04-01T05:15:21;24.52;;;13.40;;
69260;SDS011;56378;52.404;20.816;2023-04-01T05:17:47;25.25;;;14.00;;
69260;SDS011;56378;52.404;20.816;2023-04-01T05:20:13;23.87;;;13.47;;
69260;SDS011;56378;52.404;20.816;2023-04-01T05:22:41;25.25;;;13.88;;
69260;SDS011;56378;52.404;20.816;2023-04-01T05:25:08;22.98;;;13.00;;
69260;SDS011;56378;52.404;20.816;2023-04-01T05:27:34;22.13;;;13.10;;
69260;SDS011;56378;52.404;20.816;2023-04-01T05:30:03;26.30;;;13.80;;
69260;SDS011;56378;52.404;20.816;2023-04-01T05:32:30;23.02;;;12.27;;
69260;SDS011;56378;52.404;20.816;2023-04-01T05:34:56;22.05;;;12.18;;
69260;SDS011;56378;52.404;20.816;2023-04-01T05:37:22;23.58;;;12.27;;
69260;SDS011;56378;52.404;20.816;2023-04-01T05:39:48;22.00;;;12.90;;
69260;SDS011;56378;52.404;20.816;2023-04-01T05:42:13;24.50;;;12.88;;
69260;SDS011;56378;52.404;20.816;2023-04-01T05:44:40;25.50;;;12.93;;
69260;SDS011;56378;52.404;20.816;2023-04-01T05:47:06;22.73;;;12.45;;
69260;SDS011;56378;52.404;20.816;2023-04-01T05:49:33;27.10;;;12.27;;
69260;SDS011;56378;52.404;20.816;2023-04-01T05:51:59;19.20;;;11.07;;
69260;SDS011;56378;52.404;20.816;2023-04-01T05:54:24;19.23;;;10.83;;
69260;SDS011;56378;52.404;20.816;2023-04-01T05:56:50;20.67;;;11.00;;
69260;SDS011;56378;52.404;20.816;2023-04-01T05:59:16;19.17;;;10.87;;
69260;SDS011;56378;52.404;20.816;2023-04-01T06:01:43;18.08;;;9.82;;
69260;SDS011;56378;52.404;20.816;2023-04-01T06:04:11;18.15;;;10.18;;
69260;SDS011;56378;52.404;20.816;2023-04-01T06:06:40;21.23;;;10.85;;
69260;SDS011;56378;52.404;20.816;2023-04-01T06:09:27;16.40;;;10.10;;
69260;SDS011;56378;52.404;20.816;2023-04-01T06:14:37;15.90;;;8.05;;
69260;SDS011;56378;52.404;20.816;2023-04-01T06:18:02;13.63;;;7.80;;
69260;SDS011;56378;52.404;20.816;2023-04-01T06:50:48;11.93;;;6.68;;
69260;SDS011;56378;52.404;20.816;2023-04-01T06:53:34;10.30;;;6.35;;
69260;SDS011;56378;52.404;20.816;2023-04-01T06:56:14;9.63;;;5.70;;
69260;SDS011;56378;52.404;20.816;2023-04-01T06:58:47;10.73;;;5.80;;
69260;SDS011;56378;52.404;20.816;2023-04-01T07:01:40;10.82;;;6.15;;
69260;SDS011;56378;52.404;20.816;2023-04-01T07:04:20;12.07;;;6.60;;
69260;SDS011;56378;52.404;20.816;2023-04-01T07:08:08;12.20;;;6.30;;
69260;SDS011;56378;52.404;20.816;2023-04-01T07:10:03;12.10;;;6.57;;
69260;SDS011;56378;52.404;20.816;2023-04-01T07:12:43;9.80;;;5.53;;
69260;SDS011;56378;52.404;20.816;2023-04-01T07:15:24;9.60;;;5.53;;
69260;SDS011;56378;52.404;20.816;2023-04-01T07:17:57;8.77;;;4.85;;
69260;SDS011;56378;52.404;20.816;2023-04-01T07:20:50;8.77;;;4.57;;
69260;SDS011;56378;52.404;20.816;2023-04-01T07:23:21;8.02;;;3.70;;
69260;SDS011;56378;52.404;20.816;2023-04-01T07:25:58;7.10;;;4.20;;
69260;SDS011;56378;52.404;20.816;2023-04-01T07:28:31;7.07;;;3.30;;
69260;SDS011;56378;52.404;20.816;2023-04-01T07:31:10;6.82;;;3.70;;
69260;SDS011;56378;52.404;20.816;2023-04-01T07:34:03;5.03;;;2.80;;
69260;SDS011;56378;52.404;20.816;2023-04-01T07:44:44;5.20;;;2.80;;
69260;SDS011;56378;52.404;20.816;2023-04-01T07:47:38;5.82;;;2.60;;
69260;SDS011;56378;52.404;20.816;2023-04-01T07:50:29;5.55;;;2.95;;
69260;SDS011;56378;52.404;20.816;2023-04-01T08:05:30;5.43;;;2.83;;
69260;SDS011;56378;52.404;20.816;2023-04-01T08:11:02;5.68;;;3.22;;
69260;SDS011;56378;52.404;20.816;2023-04-01T08:16:15;7.00;;;3.40;;
69260;SDS011;56378;52.404;20.816;2023-04-01T08:21:23;6.67;;;3.77;;
69260;SDS011;56378;52.404;20.816;2023-04-01T08:24:42;6.20;;;3.38;;
69260;SDS011;56378;52.404;20.816;2023-04-01T08:27:39;7.00;;;3.70;;
69260;SDS011;56378;52.404;20.816;2023-04-01T08:30:15;6.80;;;3.47;;
69260;SDS011;56378;52.404;20.816;2023-04-01T08:32:56;8.82;;;4.32;;
69260;SDS011;56378;52.404;20.816;2023-04-01T08:35:51;7.13;;;4.10;;
69260;SDS011;56378;52.404;20.816;2023-04-01T08:40:59;8.52;;;4.30;;
69260;SDS011;56378;52.404;20.816;2023-04-01T08:49:06;8.37;;;5.13;;
69260;SDS011;56378;52.404;20.816;2023-04-01T09:00:30;9.32;;;5.38;;
69260;SDS011;56378;52.404;20.816;2023-04-01T09:06:06;9.43;;;5.80;;
69260;SDS011;56378;52.404;20.816;2023-04-01T09:22:31;10.40;;;6.43;;
69260;SDS011;56378;52.404;20.816;2023-04-01T09:25:29;9.93;;;5.85;;
69260;SDS011;56378;52.404;20.816;2023-04-01T09:44:36;10.57;;;5.63;;
69260;SDS011;56378;52.404;20.816;2023-04-01T10:07:39;8.40;;;5.00;;
69260;SDS011;56378;52.404;20.816;2023-04-01T10:15:49;7.47;;;3.83;;
69260;SDS011;56378;52.404;20.816;2023-04-01T10:21:25;7.35;;;3.90;;
69260;SDS011;56378;52.404;20.816;2023-04-01T10:30:05;7.22;;;3.55;;
69260;SDS011;56378;52.404;20.816;2023-04-01T10:47:48;7.65;;;3.92;;
69260;SDS011;56378;52.404;20.816;2023-04-01T10:58:40;7.65;;;3.83;;
69260;SDS011;56378;52.404;20.816;2023-04-01T11:01:48;8.05;;;4.05;;
69260;SDS011;56378;52.404;20.816;2023-04-01T11:21:49;7.18;;;3.70;;
69260;SDS011;56378;52.404;20.816;2023-04-01T11:27:22;8.15;;;3.63;;
69260;SDS011;56378;52.404;20.816;2023-04-01T11:32:43;13.18;;;7.07;;
69260;SDS011;56378;52.404;20.816;2023-04-01T11:40:47;11.30;;;6.82;;
69260;SDS011;56378;52.404;20.816;2023-04-01T11:46:02;8.05;;;4.50;;
69260;SDS011;56378;52.404;20.816;2023-04-01T11:48:42;8.50;;;4.20;;
69260;SDS011;56378;52.404;20.816;2023-04-01T12:03:33;8.35;;;3.88;;
69260;SDS011;56378;52.404;20.816;2023-04-01T12:18:11;3.13;;;1.70;;
69260;SDS011;56378;52.404;20.816;2023-04-01T12:37:28;5.00;;;2.10;;
69260;SDS011;56378;52.404;20.816;2023-04-01T12:42:57;3.80;;;1.90;;
69260;SDS011;56378;52.404;20.816;2023-04-01T12:45:43;6.70;;;2.72;;
69260;SDS011;56378;52.404;20.816;2023-04-01T12:48:27;6.37;;;2.37;;
69260;SDS011;56378;52.404;20.816;2023-04-01T13:05:01;9.50;;;5.32;;
69260;SDS011;56378;52.404;20.816;2023-04-01T13:10:13;7.93;;;4.75;;
69260;SDS011;56378;52.404;20.816;2023-04-01T13:12:55;8.07;;;4.03;;
69260;SDS011;56378;52.404;20.816;2023-04-01T13:18:10;18.13;;;9.32;;
69260;SDS011;56378;52.404;20.816;2023-04-01T13:23:41;8.95;;;4.82;;
69260;SDS011;56378;52.404;20.816;2023-04-01T13:34:27;6.53;;;2.90;;
69260;SDS011;56378;52.404;20.816;2023-04-01T13:37:23;7.43;;;3.72;;
69260;SDS011;56378;52.404;20.816;2023-04-01T13:39:57;6.07;;;2.97;;
69260;SDS011;56378;52.404;20.816;2023-04-01T13:42:33;5.40;;;2.77;;
69260;SDS011;56378;52.404;20.816;2023-04-01T13:45:14;6.97;;;3.00;;
69260;SDS011;56378;52.404;20.816;2023-04-01T13:47:49;4.45;;;2.58;;
69260;SDS011;56378;52.404;20.816;2023-04-01T13:50:44;6.97;;;3.03;;
69260;SDS011;56378;52.404;20.816;2023-04-01T13:53:37;5.63;;;3.20;;
69260;SDS011;56378;52.404;20.816;2023-04-01T14:02:51;5.75;;;3.00;;
69260;SDS011;56378;52.404;20.816;2023-04-01T14:13:34;14.38;;;7.10;;
69260;SDS011;56378;52.404;20.816;2023-04-01T14:21:46;13.93;;;7.68;;
69260;SDS011;56378;52.404;20.816;2023-04-01T14:27:21;6.80;;;3.90;;
69260;SDS011;56378;52.404;20.816;2023-04-01T14:32:49;4.68;;;2.78;;
69260;SDS011;56378;52.404;20.816;2023-04-01T14:41:06;4.80;;;2.20;;
69260;SDS011;56378;52.404;20.816;2023-04-01T14:49:37;6.13;;;2.95;;
69260;SDS011;56378;52.404;20.816;2023-04-01T15:00:47;5.85;;;2.17;;
69260;SDS011;56378;52.404;20.816;2023-04-01T15:09:02;4.57;;;2.38;;
69260;SDS011;56378;52.404;20.816;2023-04-01T15:12:00;7.10;;;3.38;;
69260;SDS011;56378;52.404;20.816;2023-04-01T15:14:34;6.10;;;2.90;;
69260;SDS011;56378;52.404;20.816;2023-04-01T15:20:01;22.73;;;8.17;;
69260;SDS011;56378;52.404;20.816;2023-04-01T15:22:42;16.20;;;7.80;;
69260;SDS011;56378;52.404;20.816;2023-04-01T15:28:22;16.73;;;8.55;;
69260;SDS011;56378;52.404;20.816;2023-04-01T15:31:04;10.65;;;5.82;;
69260;SDS011;56378;52.404;20.816;2023-04-01T15:33:39;8.67;;;4.57;;
69260;SDS011;56378;52.404;20.816;2023-04-01T15:36:30;10.00;;;4.30;;
69260;SDS011;56378;52.404;20.816;2023-04-01T15:47:32;9.57;;;4.70;;
69260;SDS011;56378;52.404;20.816;2023-04-01T16:03:47;26.77;;;10.98;;
69260;SDS011;56378;52.404;20.816;2023-04-01T16:09:01;38.03;;;14.20;;
69260;SDS011;56378;52.404;20.816;2023-04-01T16:11:53;34.03;;;14.18;;
69260;SDS011;56378;52.404;20.816;2023-04-01T16:14:28;24.33;;;11.37;;
69260;SDS011;56378;52.404;20.816;2023-04-01T16:17:00;25.77;;;12.77;;
69260;SDS011;56378;52.404;20.816;2023-04-01T16:34:21;8.15;;;4.30;;
69260;SDS011;56378;52.404;20.816;2023-04-01T16:37:19;8.70;;;3.85;;
69260;SDS011;56378;52.404;20.816;2023-04-01T16:42:56;9.83;;;4.27;;
69260;SDS011;56378;52.404;20.816;2023-04-01T16:45:37;9.82;;;4.60;;
69260;SDS011;56378;52.404;20.816;2023-04-01T16:48:20;22.10;;;7.82;;
69260;SDS011;56378;52.404;20.816;2023-04-01T16:51:09;15.32;;;6.35;;
69260;SDS011;56378;52.404;20.816;2023-04-01T16:53:43;13.85;;;5.32;;
69260;SDS011;56378;52.404;20.816;2023-04-01T16:56:39;10.00;;;4.23;;
69260;SDS011;56378;52.404;20.816;2023-04-01T16:59:23;8.35;;;4.38;;
69260;SDS011;56378;52.404;20.816;2023-04-01T17:04:40;9.30;;;4.60;;
69260;SDS011;56378;52.404;20.816;2023-04-01T17:07:26;8.85;;;4.47;;
69260;SDS011;56378;52.404;20.816;2023-04-01T17:18:44;7.57;;;3.58;;
69260;SDS011;56378;52.404;20.816;2023-04-01T17:21:57;7.40;;;3.47;;
69260;SDS011;56378;52.404;20.816;2023-04-01T17:35:22;13.00;;;6.70;;
69260;SDS011;56378;52.404;20.816;2023-04-01T17:38:03;10.80;;;5.30;;
69260;SDS011;56378;52.404;20.816;2023-04-01T17:40:44;11.98;;;5.60;;
69260;SDS011;56378;52.404;20.816;2023-04-01T17:43:36;12.40;;;6.85;;
69260;SDS011;56378;52.404;20.816;2023-04-01T17:48:51;15.03;;;7.80;;
69260;SDS011;56378;52.404;20.816;2023-04-01T17:54:39;15.90;;;8.70;;
69260;SDS011;56378;52.404;20.816;2023-04-01T18:06:41;15.48;;;9.10;;
69260;SDS011;56378;52.404;20.816;2023-04-01T18:08:54;14.60;;;8.50;;
69260;SDS011;56378;52.404;20.816;2023-04-01T18:11:37;14.23;;;7.82;;
69260;SDS011;56378;52.404;20.816;2023-04-01T18:14:28;16.98;;;9.05;;
69260;SDS011;56378;52.404;20.816;2023-04-01T18:25:54;15.55;;;8.27;;
69260;SDS011;56378;52.404;20.816;2023-04-01T18:28:39;15.45;;;8.70;;
69260;SDS011;56378;52.404;20.816;2023-04-01T18:31:23;13.30;;;7.67;;
69260;SDS011;56378;52.404;20.816;2023-04-01T18:42:15;18.23;;;10.18;;
69260;SDS011;56378;52.404;20.816;2023-04-01T18:47:15;16.33;;;8.07;;
69260;SDS011;56378;52.404;20.816;2023-04-01T18:49:54;13.23;;;7.78;;
69260;SDS011;56378;52.404;20.816;2023-04-01T18:52:56;12.95;;;7.60;;
69260;SDS011;56378;52.404;20.816;2023-04-01T18:57:50;16.37;;;7.83;;
69260;SDS011;56378;52.404;20.816;2023-04-01T19:02:52;14.60;;;8.20;;
69260;SDS011;56378;52.404;20.816;2023-04-01T19:05:31;13.90;;;8.38;;
69260;SDS011;56378;52.404;20.816;2023-04-01T19:11:10;12.38;;;7.20;;
69260;SDS011;56378;52.404;20.816;2023-04-01T19:14:15;12.55;;;7.05;;
69260;SDS011;56378;52.404;20.816;2023-04-01T19:16:54;12.57;;;6.95;;
69260;SDS011;56378;52.404;20.816;2023-04-01T19:19:51;12.55;;;7.22;;
69260;SDS011;56378;52.404;20.816;2023-04-01T19:27:42;14.65;;;7.82;;
69260;SDS011;56378;52.404;20.816;2023-04-01T19:38:31;11.23;;;6.45;;
69260;SDS011;56378;52.404;20.816;2023-04-01T19:49:46;11.13;;;6.67;;
69260;SDS011;56378;52.404;20.816;2023-04-01T19:52:26;11.90;;;7.20;;
69260;SDS011;56378;52.404;20.816;2023-04-01T19:55:03;10.82;;;6.30;;
69260;SDS011;56378;52.404;20.816;2023-04-01T20:14:29;7.30;;;4.15;;
69260;SDS011;56378;52.404;20.816;2023-04-01T20:17:18;9.55;;;4.70;;
69260;SDS011;56378;52.404;20.816;2023-04-01T20:25:17;7.97;;;4.30;;
69260;SDS011;56378;52.404;20.816;2023-04-01T20:30:46;8.52;;;4.45;;
69260;SDS011;56378;52.404;20.816;2023-04-01T20:47:33;12.07;;;5.32;;
69260;SDS011;56378;52.404;20.816;2023-04-01T20:53:51;11.00;;;4.87;;
69260;SDS011;56378;52.404;20.816;2023-04-01T21:07:46;8.90;;;4.70;;
69260;SDS011;56378;52.404;20.816;2023-04-01T21:10:26;8.38;;;4.50;;
69260;SDS011;56378;52.404;20.816;2023-04-01T21:23:27;9.20;;;5.15;;
69260;SDS011;56378;52.404;20.816;2023-04-01T21:33:52;8.13;;;4.27;;
69260;SDS011;56378;52.404;20.816;2023-04-01T21:53:19;8.30;;;3.92;;
69260;SDS011;56378;52.404;20.816;2023-04-01T21:56:14;8.90;;;4.00;;
69260;SDS011;56378;52.404;20.816;2023-04-01T22:04:56;7.25;;;3.28;;
69260;SDS011;56378;52.404;20.816;2023-04-01T22:08:03;8.52;;;3.20;;
69260;SDS011;56378;52.404;20.816;2023-04-01T22:11:34;9.20;;;3.40;;
69260;SDS011;56378;52.404;20.816;2023-04-01T22:13:54;7.00;;;3.30;;
69260;SDS011;56378;52.404;20.816;2023-04-01T22:16:50;8.30;;;3.30;;
69260;SDS011;56378;52.404;20.816;2023-04-01T22:21:53;8.15;;;3.60;;
69260;SDS011;56378;52.404;20.816;2023-04-01T22:27:07;9.20;;;3.80;;
69260;SDS011;56378;52.404;20.816;2023-04-01T22:32:45;6.90;;;3.67;;
69260;SDS011;56378;52.404;20.816;2023-04-01T22:35:27;8.68;;;3.90;;
69260;SDS011;56378;52.404;20.816;2023-04-01T22:38:05;8.90;;;4.10;;
69260;SDS011;56378;52.404;20.816;2023-04-01T22:43:37;9.85;;;3.65;;
69260;SDS011;56378;52.404;20.816;2023-04-01T22:46:30;7.15;;;3.55;;
69260;SDS011;56378;52.404;20.816;2023-04-01T22:49:11;8.45;;;3.58;;
69260;SDS011;56378;52.404;20.816;2023-04-01T22:51:55;9.30;;;3.73;;
69260;SDS011;56378;52.404;20.816;2023-04-01T22:54:31;8.40;;;4.05;;
69260;SDS011;56378;52.404;20.816;2023-04-01T22:57:11;9.30;;;3.88;;
69260;SDS011;56378;52.404;20.816;2023-04-01T23:00:05;7.35;;;3.70;;
69260;SDS011;56378;52.404;20.816;2023-04-01T23:02:49;10.38;;;3.85;;
69260;SDS011;56378;52.404;20.816;2023-04-01T23:05:29;8.67;;;4.43;;
69260;SDS011;56378;52.404;20.816;2023-04-01T23:08:03;8.60;;;3.95;;
69260;SDS011;56378;52.404;20.816;2023-04-01T23:10:58;9.57;;;4.00;;
69260;SDS011;56378;52.404;20.816;2023-04-01T23:13:32;8.70;;;3.90;;
69260;SDS011;56378;52.404;20.816;2023-04-01T23:16:03;9.25;;;3.97;;
69260;SDS011;56378;52.404;20.816;2023-04-01T23:26:43;8.95;;;4.18;;
69260;SDS011;56378;52.404;20.816;2023-04-01T23:29:17;10.30;;;4.00;;
69260;SDS011;56378;52.404;20.816;2023-04-01T23:32:02;8.97;;;3.93;;
69260;SDS011;56378;52.404;20.816;2023-04-01T23:34:35;10.10;;;4.30;;
69260;SDS011;56378;52.404;20.816;2023-04-01T23:37:03;8.75;;;4.28;;
69260;SDS011;56378;52.404;20.816;2023-04-01T23:39:34;11.10;;;4.57;;
69260;SDS011;56378;52.404;20.816;2023-04-01T23:42:03;9.80;;;4.78;;
69260;SDS011;56378;52.404;20.816;2023-04-01T23:44:51;8.90;;;4.27;;
69260;SDS011;56378;52.404;20.816;2023-04-01T23:47:24;9.05;;;4.57;;
69260;SDS011;56378;52.404;20.816;2023-04-01T23:50:12;9.93;;;4.68;;
69260;SDS011;56378;52.404;20.816;2023-04-01T23:52:59;10.88;;;5.20;;
69260;SDS011;56378;52.404;20.816;2023-04-01T23:55:25;10.13;;;5.30;;
